sensor_id;sensor_type;location;lat;lon;timestamp;pressure;altitude;pressure_sealevel;temperature;humidity
51359;BME280;37448;51.588;7.248;2023-02-12T00:01:27;103183.56;;;6.14;93.14
51359;BME280;37448;51.588;7.248;2023-02-12T00:03:27;103180.13;;;6.13;93.26
51359;BME280;37448;51.588;7.248;2023-02-12T00:05:28;103179.22;;;6.13;93.24
51359;BME280;37448;51.588;7.248;2023-02-12T00:07:29;103179.22;;;6.13;93.10
51359;BME280;37448;51.588;7.248;2023-02-12T00:09:30;103179.22;;;6.13;93.07
51359;BME280;37448;51.588;7.248;2023-02-12T00:11:30;103173.09;;;6.11;93.53
51359;BME280;37448;51.588;7.248;2023-02-12T00:13:31;103168.81;;;6.11;93.09
51359;BME280;37448;51.588;7.248;2023-02-12T00:15:31;103169.56;;;6.09;92.84
51359;BME280;37448;51.588;7.248;2023-02-12T00:17:33;103173.09;;;6.11;93.04
51359;BME280;37448;51.588;7.248;2023-02-12T00:19:34;103175.66;;;6.09;93.13
51359;BME280;37448;51.588;7.248;2023-02-12T00:21:34;103172.16;;;6.09;93.05
51359;BME280;37448;51.588;7.248;2023-02-12T00:23:35;103175.66;;;6.09;93.02
51359;BME280;37448;51.588;7.248;2023-02-12T00:25:40;103173.88;;;6.08;93.13
51359;BME280;37448;51.588;7.248;2023-02-12T00:27:41;103178.16;;;6.08;93.04
51359;BME280;37448;51.588;7.248;2023-02-12T00:29:41;103179.06;;;6.08;93.19
51359;BME280;37448;51.588;7.248;2023-02-12T00:31:41;103178.16;;;6.08;93.13
51359;BME280;37448;51.588;7.248;2023-02-12T00:33:42;103171.22;;;6.07;93.25
51359;BME280;37448;51.588;7.248;2023-02-12T00:35:43;103174.63;;;6.06;92.64
51359;BME280;37448;51.588;7.248;2023-02-12T00:37:43;103175.56;;;6.08;92.96
51359;BME280;37448;51.588;7.248;2023-02-12T00:39:44;103178.13;;;6.06;92.82
51359;BME280;37448;51.588;7.248;2023-02-12T00:41:44;103172.94;;;6.06;93.12
51359;BME280;37448;51.588;7.248;2023-02-12T00:43:45;103166.84;;;6.06;93.08
51359;BME280;37448;51.588;7.248;2023-02-12T00:45:46;103185.09;;;6.07;93.06
51359;BME280;37448;51.588;7.248;2023-02-12T00:47:47;103178.88;;;6.03;92.92
51359;BME280;37448;51.588;7.248;2023-02-12T00:49:49;103179.81;;;6.06;92.75
51359;BME280;37448;51.588;7.248;2023-02-12T00:51:49;103173.75;;;6.05;93.17
51359;BME280;37448;51.588;7.248;2023-02-12T00:53:49;103173.75;;;6.05;93.91
51359;BME280;37448;51.588;7.248;2023-02-12T00:55:50;103171.94;;;6.02;93.01
51359;BME280;37448;51.588;7.248;2023-02-12T00:57:50;103174.53;;;6.02;93.44
51359;BME280;37448;51.588;7.248;2023-02-12T00:59:51;103171.94;;;6.02;93.48
51359;BME280;37448;51.588;7.248;2023-02-12T01:01:53;103172.75;;;6.01;93.56
51359;BME280;37448;51.588;7.248;2023-02-12T01:03:54;103174.44;;;6.01;93.27
51359;BME280;37448;51.588;7.248;2023-02-12T01:05:54;103172.75;;;6.01;93.38
51359;BME280;37448;51.588;7.248;2023-02-12T01:07:56;103171.84;;;6.01;93.43
51359;BME280;37448;51.588;7.248;2023-02-12T01:09:56;103169.19;;;5.99;92.75
51359;BME280;37448;51.588;7.248;2023-02-12T01:11:56;103168.28;;;5.99;93.39
51359;BME280;37448;51.588;7.248;2023-02-12T01:13:57;103172.59;;;5.98;93.41
51359;BME280;37448;51.588;7.248;2023-02-12T01:16:17;103167.41;;;5.98;93.22
51359;BME280;37448;51.588;7.248;2023-02-12T01:18:18;103168.25;;;5.97;92.75
51359;BME280;37448;51.588;7.248;2023-02-12T01:20:20;103163.88;;;5.96;92.91
51359;BME280;37448;51.588;7.248;2023-02-12T01:22:22;103165.66;;;5.97;93.16
51359;BME280;37448;51.588;7.248;2023-02-12T01:24:23;103158.75;;;5.98;92.75
51359;BME280;37448;51.588;7.248;2023-02-12T01:26:25;103158.69;;;5.96;92.93
51359;BME280;37448;51.588;7.248;2023-02-12T01:28:25;103154.38;;;5.97;93.13
51359;BME280;37448;51.588;7.248;2023-02-12T01:30:26;103163.06;;;5.97;93.44
51359;BME280;37448;51.588;7.248;2023-02-12T01:32:26;103163.88;;;5.96;93.02
51359;BME280;37448;51.588;7.248;2023-02-12T01:34:26;103163.00;;;5.96;92.66
51359;BME280;37448;51.588;7.248;2023-02-12T01:36:28;103159.53;;;5.95;93.04
51359;BME280;37448;51.588;7.248;2023-02-12T01:38:29;103160.34;;;5.94;93.10
51359;BME280;37448;51.588;7.248;2023-02-12T01:40:29;103163.78;;;5.93;93.49
51359;BME280;37448;51.588;7.248;2023-02-12T01:42:30;103162.88;;;5.93;93.26
51359;BME280;37448;51.588;7.248;2023-02-12T01:44:32;103151.63;;;5.92;93.39
51359;BME280;37448;51.588;7.248;2023-02-12T01:46:35;103153.41;;;5.93;93.11
51359;BME280;37448;51.588;7.248;2023-02-12T01:48:47;103159.44;;;5.94;93.64
51359;BME280;37448;51.588;7.248;2023-02-12T01:50:48;103157.66;;;5.91;93.87
51359;BME280;37448;51.588;7.248;2023-02-12T01:52:53;103155.91;;;5.92;93.72
51359;BME280;37448;51.588;7.248;2023-02-12T01:54:59;103157.66;;;5.91;93.67
51359;BME280;37448;51.588;7.248;2023-02-12T01:57:03;103155.84;;;5.90;93.55
51359;BME280;37448;51.588;7.248;2023-02-12T01:59:04;103155.06;;;5.91;93.59
51359;BME280;37448;51.588;7.248;2023-02-12T02:01:07;103153.25;;;5.90;93.33
51359;BME280;37448;51.588;7.248;2023-02-12T02:03:10;103154.91;;;5.88;93.70
51359;BME280;37448;51.588;7.248;2023-02-12T02:05:11;103152.31;;;5.88;93.62
51359;BME280;37448;51.588;7.248;2023-02-12T02:07:14;103152.31;;;5.88;93.67
51359;BME280;37448;51.588;7.248;2023-02-12T02:09:16;103152.28;;;5.86;93.59
51359;BME280;37448;51.588;7.248;2023-02-12T02:11:17;103156.56;;;5.86;93.45
51359;BME280;37448;51.588;7.248;2023-02-12T02:13:38;103155.72;;;5.87;93.73
51359;BME280;37448;51.588;7.248;2023-02-12T02:16:04;103152.28;;;5.86;93.37
51359;BME280;37448;51.588;7.248;2023-02-12T02:18:15;103152.28;;;5.86;93.79
51359;BME280;37448;51.588;7.248;2023-02-12T02:20:35;103148.78;;;5.86;93.68
51359;BME280;37448;51.588;7.248;2023-02-12T02:25:34;103147.94;;;5.87;93.69
51359;BME280;37448;51.588;7.248;2023-02-12T02:27:43;103147.09;;;5.86;93.38
51359;BME280;37448;51.588;7.248;2023-02-12T02:32:21;103149.59;;;5.85;93.57
51359;BME280;37448;51.588;7.248;2023-02-12T02:34:28;103146.16;;;5.84;94.11
51359;BME280;37448;51.588;7.248;2023-02-12T02:36:44;103143.56;;;5.84;93.82
51359;BME280;37448;51.588;7.248;2023-02-12T02:38:54;103144.38;;;5.83;93.77
51359;BME280;37448;51.588;7.248;2023-02-12T02:41:08;103143.47;;;5.83;94.17
51359;BME280;37448;51.588;7.248;2023-02-12T02:43:18;103140.88;;;5.83;93.82
51359;BME280;37448;51.588;7.248;2023-02-12T02:45:30;103146.91;;;5.82;93.79
51359;BME280;37448;51.588;7.248;2023-02-12T02:47:37;103142.53;;;5.81;94.13
51359;BME280;37448;51.588;7.248;2023-02-12T02:50:01;103145.13;;;5.81;94.05
51359;BME280;37448;51.588;7.248;2023-02-12T02:52:08;103137.34;;;5.81;93.67
51359;BME280;37448;51.588;7.248;2023-02-12T02:54:15;103137.34;;;5.81;94.42
51359;BME280;37448;51.588;7.248;2023-02-12T02:56:20;103135.59;;;5.80;94.24
51359;BME280;37448;51.588;7.248;2023-02-12T02:58:26;103130.41;;;5.80;94.10
51359;BME280;37448;51.588;7.248;2023-02-12T03:02:32;103135.59;;;5.80;94.22
51359;BME280;37448;51.588;7.248;2023-02-12T03:04:47;103135.59;;;5.80;94.47
51359;BME280;37448;51.588;7.248;2023-02-12T03:06:58;103128.63;;;5.79;94.20
51359;BME280;37448;51.588;7.248;2023-02-12T03:09:26;103128.63;;;5.79;94.29
51359;BME280;37448;51.588;7.248;2023-02-12T03:11:31;103132.06;;;5.78;94.71
51359;BME280;37448;51.588;7.248;2023-02-12T03:13:42;103126.88;;;5.78;94.27
51359;BME280;37448;51.588;7.248;2023-02-12T03:17:57;103139.84;;;5.78;94.56
51359;BME280;37448;51.588;7.248;2023-02-12T03:20:07;103139.84;;;5.78;94.37
51359;BME280;37448;51.588;7.248;2023-02-12T03:22:13;103132.88;;;5.77;94.48
51359;BME280;37448;51.588;7.248;2023-02-12T03:24:21;103137.25;;;5.78;94.43
51359;BME280;37448;51.588;7.248;2023-02-12T03:26:37;103132.81;;;5.75;94.38
51359;BME280;37448;51.588;7.248;2023-02-12T03:28:38;103136.31;;;5.75;94.23
51359;BME280;37448;51.588;7.248;2023-02-12T03:35:41;103131.88;;;5.73;94.37
51359;BME280;37448;51.588;7.248;2023-02-12T03:38:05;103130.09;;;5.72;94.50
51359;BME280;37448;51.588;7.248;2023-02-12T03:45:08;103132.69;;;5.72;94.84
51359;BME280;37448;51.588;7.248;2023-02-12T03:51:38;103137.84;;;5.70;94.85
51359;BME280;37448;51.588;7.248;2023-02-12T03:53:40;103137.84;;;5.70;94.73
51359;BME280;37448;51.588;7.248;2023-02-12T03:55:45;103140.44;;;5.70;94.64
51359;BME280;37448;51.588;7.248;2023-02-12T03:57:52;103138.66;;;5.69;94.69
51359;BME280;37448;51.588;7.248;2023-02-12T03:59:56;103138.66;;;5.69;94.63
51359;BME280;37448;51.588;7.248;2023-02-12T04:01:58;103142.09;;;5.68;94.73
51359;BME280;37448;51.588;7.248;2023-02-12T04:04:02;103147.28;;;5.68;94.78
51359;BME280;37448;51.588;7.248;2023-02-12T04:06:04;103154.22;;;5.69;94.73
51359;BME280;37448;51.588;7.248;2023-02-12T04:08:07;103155.88;;;5.67;95.03
51359;BME280;37448;51.588;7.248;2023-02-12T04:10:08;103155.88;;;5.67;94.68
51359;BME280;37448;51.588;7.248;2023-02-12T04:12:14;103151.47;;;5.66;95.06
51359;BME280;37448;51.588;7.248;2023-02-12T04:18:47;103160.91;;;5.64;94.60
51359;BME280;37448;51.588;7.248;2023-02-12T04:21:32;103164.31;;;5.63;95.03
51359;BME280;37448;51.588;7.248;2023-02-12T04:23:47;103166.09;;;5.64;94.70
51359;BME280;37448;51.588;7.248;2023-02-12T04:28:27;103172.94;;;5.62;94.87
51359;BME280;37448;51.588;7.248;2023-02-12T04:30:37;103175.59;;;5.64;95.14
51359;BME280;37448;51.588;7.248;2023-02-12T04:32:46;103178.13;;;5.62;94.69
51359;BME280;37448;51.588;7.248;2023-02-12T04:34:49;103179.00;;;5.63;94.89
51359;BME280;37448;51.588;7.248;2023-02-12T04:38:58;103183.28;;;5.62;95.00
51359;BME280;37448;51.588;7.248;2023-02-12T04:41:00;103185.84;;;5.60;95.19
51359;BME280;37448;51.588;7.248;2023-02-12T04:43:02;103190.13;;;5.60;95.11
51359;BME280;37448;51.588;7.248;2023-02-12T04:45:02;103196.22;;;5.60;95.14
51359;BME280;37448;51.588;7.248;2023-02-12T04:47:02;103191.03;;;5.60;95.19
51359;BME280;37448;51.588;7.248;2023-02-12T04:49:03;103190.13;;;5.60;94.95
51359;BME280;37448;51.588;7.248;2023-02-12T04:51:03;103199.63;;;5.59;94.88
51359;BME280;37448;51.588;7.248;2023-02-12T04:53:04;103193.56;;;5.59;95.16
51359;BME280;37448;51.588;7.248;2023-02-12T04:55:05;103199.63;;;5.59;95.33
51359;BME280;37448;51.588;7.248;2023-02-12T04:57:05;103200.38;;;5.57;94.74
51359;BME280;37448;51.588;7.248;2023-02-12T04:59:06;103204.81;;;5.59;94.81
51359;BME280;37448;51.588;7.248;2023-02-12T05:01:07;103197.03;;;5.59;95.27
51359;BME280;37448;51.588;7.248;2023-02-12T05:03:09;103197.09;;;5.61;95.46
51359;BME280;37448;51.588;7.248;2023-02-12T05:05:09;103199.69;;;5.61;95.01
51359;BME280;37448;51.588;7.248;2023-02-12T05:07:10;103201.41;;;5.60;95.25
51359;BME280;37448;51.588;7.248;2023-02-12T05:09:17;103198.84;;;5.62;95.04
51359;BME280;37448;51.588;7.248;2023-02-12T05:11:17;103196.34;;;5.64;95.16
51359;BME280;37448;51.588;7.248;2023-02-12T05:13:17;103200.63;;;5.63;94.87
51359;BME280;37448;51.588;7.248;2023-02-12T05:15:18;103193.66;;;5.62;95.36
51359;BME280;37448;51.588;7.248;2023-02-12T05:17:21;103198.84;;;5.62;94.80
51359;BME280;37448;51.588;7.248;2023-02-12T05:19:22;103201.53;;;5.64;94.99
51359;BME280;37448;51.588;7.248;2023-02-12T05:21:22;103200.63;;;5.63;95.05
51359;BME280;37448;51.588;7.248;2023-02-12T05:23:25;103197.22;;;5.64;95.22
51359;BME280;37448;51.588;7.248;2023-02-12T05:25:26;103207.56;;;5.64;95.32
51359;BME280;37448;51.588;7.248;2023-02-12T05:27:27;103201.56;;;5.65;94.86
51359;BME280;37448;51.588;7.248;2023-02-12T05:29:27;103205.88;;;5.65;95.31
51359;BME280;37448;51.588;7.248;2023-02-12T05:31:27;103208.47;;;5.65;94.93
51359;BME280;37448;51.588;7.248;2023-02-12T05:33:28;103208.47;;;5.65;95.11
51359;BME280;37448;51.588;7.248;2023-02-12T05:35:29;103211.94;;;5.65;95.48
51359;BME280;37448;51.588;7.248;2023-02-12T05:37:29;103206.72;;;5.64;94.93
51359;BME280;37448;51.588;7.248;2023-02-12T05:39:30;103212.75;;;5.64;94.94
51359;BME280;37448;51.588;7.248;2023-02-12T05:41:31;103215.34;;;5.64;95.39
51359;BME280;37448;51.588;7.248;2023-02-12T05:43:34;103210.13;;;5.63;95.24
51359;BME280;37448;51.588;7.248;2023-02-12T05:45:34;103219.66;;;5.64;95.46
51359;BME280;37448;51.588;7.248;2023-02-12T05:47:35;103217.94;;;5.64;95.18
51359;BME280;37448;51.588;7.248;2023-02-12T05:49:35;103212.75;;;5.64;95.04
51359;BME280;37448;51.588;7.248;2023-02-12T05:51:36;103212.75;;;5.64;95.32
51359;BME280;37448;51.588;7.248;2023-02-12T05:53:37;103215.34;;;5.64;95.41
51359;BME280;37448;51.588;7.248;2023-02-12T05:55:38;103207.53;;;5.63;95.01
51359;BME280;37448;51.588;7.248;2023-02-12T05:57:39;103213.59;;;5.63;95.12
51359;BME280;37448;51.588;7.248;2023-02-12T05:59:39;103217.06;;;5.64;95.30
51359;BME280;37448;51.588;7.248;2023-02-12T06:01:41;103217.06;;;5.64;95.68
51359;BME280;37448;51.588;7.248;2023-02-12T06:03:42;103214.47;;;5.64;95.14
51359;BME280;37448;51.588;7.248;2023-02-12T06:05:49;103214.41;;;5.62;95.07
51359;BME280;37448;51.588;7.248;2023-02-12T06:07:50;103215.31;;;5.63;95.34
51359;BME280;37448;51.588;7.248;2023-02-12T06:09:50;103210.13;;;5.63;94.93
51359;BME280;37448;51.588;7.248;2023-02-12T06:11:51;103214.41;;;5.62;95.15
51359;BME280;37448;51.588;7.248;2023-02-12T06:13:51;103217.81;;;5.61;95.33
51359;BME280;37448;51.588;7.248;2023-02-12T06:15:52;103223.00;;;5.61;95.11
51359;BME280;37448;51.588;7.248;2023-02-12T06:17:52;103225.59;;;5.61;95.25
51359;BME280;37448;51.588;7.248;2023-02-12T06:19:52;103224.78;;;5.62;95.29
51359;BME280;37448;51.588;7.248;2023-02-12T06:21:53;103225.59;;;5.61;94.83
51359;BME280;37448;51.588;7.248;2023-02-12T06:23:53;103223.84;;;5.60;94.71
51359;BME280;37448;51.588;7.248;2023-02-12T06:25:55;103224.78;;;5.62;95.07
51359;BME280;37448;51.588;7.248;2023-02-12T06:27:55;103227.38;;;5.62;95.19
51359;BME280;37448;51.588;7.248;2023-02-12T06:29:56;103226.50;;;5.62;95.38
51359;BME280;37448;51.588;7.248;2023-02-12T06:31:56;103226.50;;;5.62;94.98
51359;BME280;37448;51.588;7.248;2023-02-12T06:34:00;103228.19;;;5.61;95.01
51359;BME280;37448;51.588;7.248;2023-02-12T06:36:02;103226.44;;;5.60;94.69
51359;BME280;37448;51.588;7.248;2023-02-12T06:38:03;103226.50;;;5.62;94.95
51359;BME280;37448;51.588;7.248;2023-02-12T06:40:05;103227.38;;;5.62;95.17
51359;BME280;37448;51.588;7.248;2023-02-12T06:42:05;103236.91;;;5.63;95.42
51359;BME280;37448;51.588;7.248;2023-02-12T06:44:06;103236.06;;;5.63;94.88
51359;BME280;37448;51.588;7.248;2023-02-12T06:46:07;103234.31;;;5.63;95.26
51359;BME280;37448;51.588;7.248;2023-02-12T06:48:07;103236.91;;;5.63;94.98
51359;BME280;37448;51.588;7.248;2023-02-12T06:50:08;103231.63;;;5.60;94.83
51359;BME280;37448;51.588;7.248;2023-02-12T06:52:08;103236.91;;;5.63;94.76
51359;BME280;37448;51.588;7.248;2023-02-12T06:54:14;103236.09;;;5.64;95.07
51359;BME280;37448;51.588;7.248;2023-02-12T06:56:14;103233.50;;;5.64;95.04
51359;BME280;37448;51.588;7.248;2023-02-12T06:58:15;103238.69;;;5.64;94.94
51359;BME280;37448;51.588;7.248;2023-02-12T07:00:15;103234.41;;;5.65;95.05
51359;BME280;37448;51.588;7.248;2023-02-12T07:02:16;103235.28;;;5.65;94.92
51359;BME280;37448;51.588;7.248;2023-02-12T07:04:16;103237.03;;;5.66;95.27
51359;BME280;37448;51.588;7.248;2023-02-12T07:06:17;103232.75;;;5.67;95.11
51359;BME280;37448;51.588;7.248;2023-02-12T07:08:18;103242.22;;;5.66;95.26
51359;BME280;37448;51.588;7.248;2023-02-12T07:10:18;103241.34;;;5.66;94.94
51359;BME280;37448;51.588;7.248;2023-02-12T07:12:18;103251.84;;;5.69;95.34
51359;BME280;37448;51.588;7.248;2023-02-12T07:14:19;103252.75;;;5.69;95.25
51359;BME280;37448;51.588;7.248;2023-02-12T07:16:19;103246.75;;;5.70;95.08
51359;BME280;37448;51.588;7.248;2023-02-12T07:18:20;103247.69;;;5.72;95.48
51359;BME280;37448;51.588;7.248;2023-02-12T07:20:20;103249.44;;;5.73;95.54
51359;BME280;37448;51.588;7.248;2023-02-12T07:22:21;103249.56;;;5.77;95.37
51359;BME280;37448;51.588;7.248;2023-02-12T07:24:22;103249.56;;;5.77;95.19
51359;BME280;37448;51.588;7.248;2023-02-12T07:26:22;103254.00;;;5.79;95.32
51359;BME280;37448;51.588;7.248;2023-02-12T07:28:23;103248.81;;;5.79;95.39
51359;BME280;37448;51.588;7.248;2023-02-12T07:30:23;103253.22;;;5.82;94.91
51359;BME280;37448;51.588;7.248;2023-02-12T07:32:24;103257.66;;;5.84;95.30
51359;BME280;37448;51.588;7.248;2023-02-12T07:34:24;103255.94;;;5.85;95.14
51359;BME280;37448;51.588;7.248;2023-02-12T07:36:27;103256.88;;;5.87;95.13
51359;BME280;37448;51.588;7.248;2023-02-12T07:38:27;103255.22;;;5.89;95.05
51359;BME280;37448;51.588;7.248;2023-02-12T07:40:28;103264.84;;;5.92;94.93
51359;BME280;37448;51.588;7.248;2023-02-12T07:42:28;103264.09;;;5.94;95.06
51359;BME280;37448;51.588;7.248;2023-02-12T07:44:29;103267.75;;;5.99;95.22
51359;BME280;37448;51.588;7.248;2023-02-12T07:46:33;103264.34;;;6.00;95.53
51359;BME280;37448;51.588;7.248;2023-02-12T07:48:34;103273.22;;;6.06;95.49
51359;BME280;37448;51.588;7.248;2023-02-12T07:50:34;103276.00;;;6.10;95.53
51359;BME280;37448;51.588;7.248;2023-02-12T07:52:35;103270.00;;;6.11;95.29
51359;BME280;37448;51.588;7.248;2023-02-12T07:54:35;103278.78;;;6.15;95.17
51359;BME280;37448;51.588;7.248;2023-02-12T07:56:37;103276.31;;;6.18;95.11
51359;BME280;37448;51.588;7.248;2023-02-12T07:58:39;103276.47;;;6.23;95.19
51359;BME280;37448;51.588;7.248;2023-02-12T08:00:40;103281.66;;;6.23;95.24
51359;BME280;37448;51.588;7.248;2023-02-12T08:02:40;103286.97;;;6.26;94.99
51359;BME280;37448;51.588;7.248;2023-02-12T08:04:40;103285.34;;;6.28;94.70
51359;BME280;37448;51.588;7.248;2023-02-12T08:06:43;103286.22;;;6.28;95.08
51359;BME280;37448;51.588;7.248;2023-02-12T08:08:44;103287.97;;;6.29;95.02
51359;BME280;37448;51.588;7.248;2023-02-12T08:10:45;103293.16;;;6.29;94.16
51359;BME280;37448;51.588;7.248;2023-02-12T08:12:45;103299.38;;;6.33;94.30
51359;BME280;37448;51.588;7.248;2023-02-12T08:14:46;103294.22;;;6.35;94.95
51359;BME280;37448;51.588;7.248;2023-02-12T08:16:47;103302.13;;;6.38;94.96
51359;BME280;37448;51.588;7.248;2023-02-12T08:18:48;103299.59;;;6.39;94.93
51359;BME280;37448;51.588;7.248;2023-02-12T08:20:49;103300.50;;;6.40;95.06
51359;BME280;37448;51.588;7.248;2023-02-12T08:22:49;103300.50;;;6.40;94.61
51359;BME280;37448;51.588;7.248;2023-02-12T08:24:50;103295.44;;;6.43;94.65
51359;BME280;37448;51.588;7.248;2023-02-12T08:26:50;103307.50;;;6.42;94.27
51359;BME280;37448;51.588;7.248;2023-02-12T08:28:57;103297.19;;;6.44;94.37
51359;BME280;37448;51.588;7.248;2023-02-12T08:31:00;103309.34;;;6.45;94.60
51359;BME280;37448;51.588;7.248;2023-02-12T08:33:01;103309.34;;;6.45;94.20
51359;BME280;37448;51.588;7.248;2023-02-12T08:35:01;103307.72;;;6.49;94.44
51359;BME280;37448;51.588;7.248;2023-02-12T08:37:04;103307.81;;;6.50;94.38
51359;BME280;37448;51.588;7.248;2023-02-12T08:39:06;103306.16;;;6.52;94.35
51359;BME280;37448;51.588;7.248;2023-02-12T08:41:12;103300.97;;;6.52;94.20
51359;BME280;37448;51.588;7.248;2023-02-12T08:43:13;103309.69;;;6.54;94.08
51359;BME280;37448;51.588;7.248;2023-02-12T08:45:13;103309.56;;;6.51;93.59
51359;BME280;37448;51.588;7.248;2023-02-12T08:47:14;103309.69;;;6.54;93.19
51359;BME280;37448;51.588;7.248;2023-02-12T08:49:17;103308.97;;;6.58;93.85
51359;BME280;37448;51.588;7.248;2023-02-12T08:51:20;103317.69;;;6.60;93.90
51359;BME280;37448;51.588;7.248;2023-02-12T08:53:21;103313.44;;;6.63;93.86
51359;BME280;37448;51.588;7.248;2023-02-12T08:55:21;103315.25;;;6.64;93.84
51359;BME280;37448;51.588;7.248;2023-02-12T08:57:22;103314.47;;;6.66;93.76
51359;BME280;37448;51.588;7.248;2023-02-12T08:59:22;103323.19;;;6.68;93.50
51359;BME280;37448;51.588;7.248;2023-02-12T09:01:25;103318.19;;;6.73;93.71
51359;BME280;37448;51.588;7.248;2023-02-12T09:03:26;103319.13;;;6.75;93.25
51359;BME280;37448;51.588;7.248;2023-02-12T09:05:26;103322.75;;;6.80;93.87
51359;BME280;37448;51.588;7.248;2023-02-12T09:07:27;103320.28;;;6.83;93.50
51359;BME280;37448;51.588;7.248;2023-02-12T09:09:27;103326.53;;;6.88;93.66
51359;BME280;37448;51.588;7.248;2023-02-12T09:11:28;103329.25;;;6.92;93.67
51359;BME280;37448;51.588;7.248;2023-02-12T09:13:32;103321.56;;;6.95;93.66
51359;BME280;37448;51.588;7.248;2023-02-12T09:15:37;103325.22;;;7.00;93.89
51359;BME280;37448;51.588;7.248;2023-02-12T09:17:38;103325.22;;;7.00;92.96
51359;BME280;37448;51.588;7.248;2023-02-12T09:19:40;103338.50;;;7.08;93.31
51359;BME280;37448;51.588;7.248;2023-02-12T09:21:41;103334.16;;;7.08;92.41
51359;BME280;37448;51.588;7.248;2023-02-12T09:23:42;103335.81;;;7.06;92.08
51359;BME280;37448;51.588;7.248;2023-02-12T09:25:44;103332.56;;;7.12;92.87
51359;BME280;37448;51.588;7.248;2023-02-12T09:27:45;103335.22;;;7.13;92.93
51359;BME280;37448;51.588;7.248;2023-02-12T09:29:45;103337.84;;;7.13;91.94
51359;BME280;37448;51.588;7.248;2023-02-12T09:31:45;103332.75;;;7.16;91.93
51359;BME280;37448;51.588;7.248;2023-02-12T09:33:46;103335.34;;;7.16;90.90
51359;BME280;37448;51.588;7.248;2023-02-12T09:35:46;103337.16;;;7.19;90.57
51359;BME280;37448;51.588;7.248;2023-02-12T09:37:47;103333.78;;;7.22;90.47
51359;BME280;37448;51.588;7.248;2023-02-12T09:39:47;103330.34;;;7.23;89.73
51359;BME280;37448;51.588;7.248;2023-02-12T09:46:47;103331.41;;;7.28;89.79
51359;BME280;37448;51.588;7.248;2023-02-12T09:49:06;103332.44;;;7.33;90.08
51359;BME280;37448;51.588;7.248;2023-02-12T09:51:08;103333.38;;;7.35;91.01
51359;BME280;37448;51.588;7.248;2023-02-12T09:53:14;103338.56;;;7.35;89.67
51359;BME280;37448;51.588;7.248;2023-02-12T09:55:17;103340.41;;;7.38;89.83
51359;BME280;37448;51.588;7.248;2023-02-12T09:57:24;103351.75;;;7.40;89.32
51359;BME280;37448;51.588;7.248;2023-02-12T09:59:38;103340.38;;;7.36;87.67
51359;BME280;37448;51.588;7.248;2023-02-12T10:01:40;103349.09;;;7.38;86.76
51359;BME280;37448;51.588;7.248;2023-02-12T10:03:41;103346.59;;;7.41;87.38
51359;BME280;37448;51.588;7.248;2023-02-12T10:06:00;103337.97;;;7.42;87.18
51359;BME280;37448;51.588;7.248;2023-02-12T10:10:50;103341.63;;;7.47;85.50
51359;BME280;37448;51.588;7.248;2023-02-12T10:13:06;103339.13;;;7.51;85.30
51359;BME280;37448;51.588;7.248;2023-02-12T10:19:43;103336.88;;;7.61;83.52
51359;BME280;37448;51.588;7.248;2023-02-12T10:24:54;103344.94;;;7.69;83.08
51359;BME280;37448;51.588;7.248;2023-02-12T10:27:06;103339.94;;;7.75;84.07
51359;BME280;37448;51.588;7.248;2023-02-12T10:29:31;103338.28;;;7.78;83.38
51359;BME280;37448;51.588;7.248;2023-02-12T10:31:36;103334.00;;;7.80;82.22
51359;BME280;37448;51.588;7.248;2023-02-12T10:33:42;103337.50;;;7.80;80.54
51359;BME280;37448;51.588;7.248;2023-02-12T10:35:48;103335.19;;;7.89;82.70
51359;BME280;37448;51.588;7.248;2023-02-12T10:38:00;103337.88;;;7.91;80.54
51359;BME280;37448;51.588;7.248;2023-02-12T10:40:15;103342.31;;;7.95;81.08
51359;BME280;37448;51.588;7.248;2023-02-12T10:42:17;103340.66;;;7.97;80.20
51359;BME280;37448;51.588;7.248;2023-02-12T10:44:19;103337.13;;;7.95;79.42
51359;BME280;37448;51.588;7.248;2023-02-12T10:46:20;103330.97;;;7.93;78.08
51359;BME280;37448;51.588;7.248;2023-02-12T10:48:21;103339.81;;;7.98;80.38
51359;BME280;37448;51.588;7.248;2023-02-12T10:50:44;103336.44;;;8.01;79.81
51359;BME280;37448;51.588;7.248;2023-02-12T10:52:53;103336.72;;;8.10;81.09
51359;BME280;37448;51.588;7.248;2023-02-12T10:54:55;103336.78;;;8.12;78.53
51359;BME280;37448;51.588;7.248;2023-02-12T10:56:55;103334.53;;;8.23;81.49
51359;BME280;37448;51.588;7.248;2023-02-12T10:58:59;103327.44;;;8.18;77.21
51359;BME280;37448;51.588;7.248;2023-02-12T11:01:01;103329.25;;;8.21;76.57
51359;BME280;37448;51.588;7.248;2023-02-12T11:03:23;103329.66;;;8.33;79.05
51359;BME280;37448;51.588;7.248;2023-02-12T11:05:29;103332.13;;;8.30;76.38
51359;BME280;37448;51.588;7.248;2023-02-12T11:07:45;103328.34;;;8.48;79.24
51359;BME280;37448;51.588;7.248;2023-02-12T11:09:48;103324.91;;;8.49;77.70
51359;BME280;37448;51.588;7.248;2023-02-12T11:11:49;103330.69;;;8.40;75.53
51359;BME280;37448;51.588;7.248;2023-02-12T11:13:56;103325.06;;;8.26;74.46
51359;BME280;37448;51.588;7.248;2023-02-12T11:15:57;103321.50;;;8.50;79.47
51359;BME280;37448;51.588;7.248;2023-02-12T11:18:03;103321.38;;;8.47;76.28
51359;BME280;37448;51.588;7.248;2023-02-12T11:20:18;103321.69;;;8.56;78.01
51359;BME280;37448;51.588;7.248;2023-02-12T11:22:20;103315.41;;;8.50;74.64
51359;BME280;37448;51.588;7.248;2023-02-12T11:24:33;103315.59;;;8.56;78.32
51359;BME280;37448;51.588;7.248;2023-02-12T11:26:33;103316.66;;;8.35;75.13
51359;BME280;37448;51.588;7.248;2023-02-12T11:28:35;103319.59;;;8.46;77.39
51359;BME280;37448;51.588;7.248;2023-02-12T11:30:48;103311.06;;;8.50;78.23
51359;BME280;37448;51.588;7.248;2023-02-12T11:32:49;103316.16;;;8.47;77.99
51359;BME280;37448;51.588;7.248;2023-02-12T11:35:14;103308.69;;;8.29;75.36
51359;BME280;37448;51.588;7.248;2023-02-12T11:37:18;103305.09;;;8.25;75.81
51359;BME280;37448;51.588;7.248;2023-02-12T11:39:22;103305.25;;;8.31;76.87
51359;BME280;37448;51.588;7.248;2023-02-12T11:41:34;103306.50;;;8.43;77.92
51359;BME280;37448;51.588;7.248;2023-02-12T11:43:35;103305.75;;;8.47;78.49